createdAt,value
2017-06-21T00:00:07.052Z,71.70
2017-06-21T00:02:35.173Z,71.90
2017-06-21T00:05:03.320Z,72.10
2017-06-21T00:07:31.451Z,71.50
2017-06-21T00:09:59.894Z,71.60
2017-06-21T00:12:28.044Z,71.80
2017-06-21T00:14:56.178Z,71.20
2017-06-21T00:17:24.308Z,71.20
2017-06-21T00:19:52.445Z,71.60
2017-06-21T00:22:20.582Z,72.00
2017-06-21T00:24:48.711Z,71.90
2017-06-21T00:27:17.301Z,72.10
2017-06-21T00:29:45.664Z,72.20
2017-06-21T00:32:13.793Z,72.00
2017-06-21T00:34:42.026Z,71.90
2017-06-21T00:37:10.220Z,71.70
2017-06-21T00:39:38.368Z,71.80
2017-06-21T00:42:06.510Z,71.50
2017-06-21T00:44:35.090Z,71.30
2017-06-21T00:47:03.219Z,71.40
2017-06-21T00:49:31.377Z,71.60
2017-06-21T00:51:59.549Z,71.60
2017-06-21T00:54:28.487Z,72.40
2017-06-21T00:56:56.796Z,72.40
2017-06-21T00:59:25.578Z,72.40
2017-06-21T01:01:54.115Z,72.30
2017-06-21T01:04:22.247Z,72.10
2017-06-21T01:06:50.374Z,72.00
2017-06-21T01:09:18.537Z,72.10
2017-06-21T01:11:46.771Z,72.00
2017-06-21T01:14:15.504Z,72.30
2017-06-21T01:16:43.635Z,71.90
2017-06-21T01:19:12.117Z,71.70
2017-06-21T01:21:40.246Z,71.60
2017-06-21T01:24:08.402Z,71.40
2017-06-21T01:26:36.554Z,71.40
2017-06-21T01:29:04.666Z,71.20
2017-06-21T01:31:32.812Z,71.40
2017-06-21T01:34:00.933Z,71.50
2017-06-21T01:36:29.092Z,71.70
2017-06-21T01:38:57.229Z,71.40
2017-06-21T01:41:25.765Z,71.60
2017-06-21T01:43:54.657Z,72.70
2017-06-21T01:46:22.887Z,72.70
2017-06-21T01:48:51.042Z,73.20
2017-06-21T01:51:19.949Z,73.40
2017-06-21T01:53:48.176Z,73.30
2017-06-21T01:56:16.310Z,73.50
2017-06-21T01:58:44.708Z,73.70
2017-06-21T02:01:12.830Z,73.60
2017-06-21T02:03:40.962Z,73.20
2017-06-21T02:06:09.112Z,72.70
2017-06-21T02:08:37.654Z,72.80
2017-06-21T02:11:05.803Z,72.30
2017-06-21T02:13:33.917Z,72.00
2017-06-21T02:16:02.382Z,71.80
2017-06-21T02:18:30.521Z,71.00
2017-06-21T02:20:58.659Z,70.70
2017-06-21T02:23:26.810Z,70.50
2017-06-21T02:25:55.084Z,70.90
2017-06-21T02:28:23.266Z,71.00
2017-06-21T02:30:51.414Z,71.10
2017-06-21T02:33:19.932Z,70.40
2017-06-21T02:35:48.801Z,70.70
2017-06-21T02:38:17.539Z,71.10
2017-06-21T02:40:45.717Z,71.80
2017-06-21T02:43:13.854Z,72.30
2017-06-21T02:45:42.018Z,72.20
2017-06-21T02:48:10.156Z,72.40
2017-06-21T02:50:38.704Z,73.10
2017-06-21T02:56:00.903Z,74.20
2017-06-21T02:58:29.037Z,74.70
2017-06-21T03:00:57.581Z,75.00
2017-06-21T03:03:25.756Z,75.40
2017-06-21T03:05:53.906Z,75.30
2017-06-21T03:08:22.066Z,75.90
2017-06-21T03:10:50.228Z,76.00
2017-06-21T03:13:18.678Z,76.20
2017-06-21T03:15:46.813Z,76.70
2017-06-21T03:18:14.945Z,76.90
2017-06-21T03:20:43.102Z,76.90
2017-06-21T03:23:11.228Z,76.40
2017-06-21T03:25:39.384Z,76.60
2017-06-21T03:28:07.518Z,77.40
2017-06-21T03:30:35.955Z,76.70
2017-06-21T03:33:04.094Z,75.40
2017-06-21T03:35:32.227Z,75.20
2017-06-21T03:38:01.143Z,75.80
2017-06-21T03:40:29.307Z,75.70
2017-06-21T03:42:57.463Z,75.40
2017-06-21T03:45:25.640Z,75.50
2017-06-21T03:47:54.091Z,76.40
2017-06-21T03:50:22.230Z,75.70
2017-06-21T03:52:50.340Z,75.60
2017-06-21T03:55:18.536Z,75.40
2017-06-21T03:57:46.682Z,75.80
2017-06-21T04:00:15.610Z,75.70
2017-06-21T04:02:43.750Z,75.70
2017-06-21T04:05:12.190Z,75.50
2017-06-21T04:07:40.332Z,75.80
2017-06-21T04:10:08.474Z,76.00
2017-06-21T04:12:36.662Z,75.30
2017-06-21T04:15:04.801Z,74.60
2017-06-21T04:17:32.955Z,73.70
2017-06-21T04:20:01.073Z,72.80
2017-06-21T04:22:29.651Z,72.30
2017-06-21T04:24:57.786Z,72.20
2017-06-21T04:27:26.680Z,70.00
2017-06-21T04:29:54.846Z,69.90
2017-06-21T04:32:22.976Z,69.80
2017-06-21T04:34:51.134Z,68.70
2017-06-21T04:37:19.265Z,66.60
2017-06-21T04:39:47.742Z,65.90
2017-06-21T04:42:15.997Z,64.40
2017-06-21T04:44:44.108Z,64.40
2017-06-21T04:47:12.251Z,64.90
2017-06-21T04:49:40.385Z,64.40
2017-06-21T04:52:08.524Z,64.40
2017-06-21T04:54:36.753Z,64.30
2017-06-21T04:57:05.274Z,64.50
2017-06-21T04:59:34.176Z,66.20
2017-06-21T05:02:02.340Z,66.10
2017-06-21T05:04:30.498Z,66.30
2017-06-21T05:06:58.727Z,66.70
2017-06-21T05:09:26.872Z,67.30
2017-06-21T05:11:55.005Z,67.90
2017-06-21T05:14:23.447Z,68.70
2017-06-21T05:16:51.569Z,68.90
2017-06-21T05:19:19.704Z,67.90
2017-06-21T05:21:47.944Z,68.00
2017-06-21T05:24:16.059Z,69.30
2017-06-21T05:26:44.305Z,68.00
2017-06-21T05:29:13.390Z,67.60
2017-06-21T05:31:42.369Z,68.40
2017-06-21T05:34:10.491Z,67.00
2017-06-21T05:36:38.658Z,67.80
2017-06-21T05:39:06.809Z,66.50
2017-06-21T05:41:34.919Z,68.30
2017-06-21T05:44:03.064Z,68.10
2017-06-21T05:46:31.220Z,68.40
2017-06-21T05:48:59.799Z,67.50
2017-06-21T05:51:27.927Z,67.50
2017-06-21T05:53:56.251Z,68.00
2017-06-21T05:56:24.415Z,67.40
2017-06-21T05:58:52.548Z,67.60
2017-06-21T06:01:21.644Z,66.70
2017-06-21T06:03:49.786Z,66.60
2017-06-21T06:06:18.222Z,65.50
2017-06-21T06:08:46.315Z,66.00
2017-06-21T06:11:14.419Z,65.60
2017-06-21T06:13:42.569Z,65.30
2017-06-21T06:16:10.663Z,64.70
2017-06-21T06:18:38.783Z,65.20
2017-06-21T06:21:06.873Z,65.20
2017-06-21T06:23:35.451Z,65.00
2017-06-21T06:26:03.764Z,63.50
2017-06-21T06:28:31.859Z,63.40
2017-06-21T06:31:00.755Z,65.10
2017-06-21T06:33:28.920Z,65.00
2017-06-21T06:35:57.067Z,65.50
2017-06-21T06:38:25.169Z,66.10
2017-06-21T06:40:53.604Z,65.40
2017-06-21T06:43:21.784Z,65.40
2017-06-21T06:45:50.844Z,65.40
2017-06-21T06:48:18.970Z,65.40
2017-06-21T06:50:47.386Z,64.80
2017-06-21T06:53:15.494Z,64.50
2017-06-21T06:55:44.364Z,67.60
2017-06-21T06:58:12.743Z,67.50
2017-06-21T07:00:41.404Z,68.00
2017-06-21T07:03:09.503Z,67.90
2017-06-21T07:05:37.727Z,67.00
2017-06-21T07:08:05.951Z,65.40
2017-06-21T07:10:34.089Z,64.80
2017-06-21T07:13:02.175Z,63.90
2017-06-21T07:15:30.663Z,63.60
2017-06-21T07:17:58.759Z,64.00
2017-06-21T07:20:26.856Z,64.30
2017-06-21T07:22:54.975Z,61.40
2017-06-21T07:25:23.130Z,62.40
2017-06-21T07:27:51.340Z,64.40
2017-06-21T07:30:19.686Z,65.20
2017-06-21T07:32:48.968Z,65.60
2017-06-21T07:35:17.118Z,65.40
2017-06-21T07:37:45.258Z,64.80
2017-06-21T07:40:13.514Z,61.10
2017-06-21T07:42:41.654Z,60.30
2017-06-21T07:45:09.826Z,61.60
2017-06-21T07:47:38.800Z,61.40
2017-06-21T07:50:07.322Z,61.20
2017-06-21T07:52:35.462Z,60.30
2017-06-21T07:55:03.602Z,59.20
2017-06-21T07:57:32.849Z,58.60
2017-06-21T08:00:00.991Z,58.40
2017-06-21T08:02:29.165Z,58.90
2017-06-21T08:04:57.365Z,59.10
2017-06-21T08:07:25.887Z,59.60
2017-06-21T08:09:54.012Z,59.20
2017-06-21T08:12:25.194Z,57.30
2017-06-21T08:14:53.497Z,58.30
2017-06-21T08:17:22.414Z,57.40
2017-06-21T08:19:50.619Z,57.40
2017-06-21T08:22:18.788Z,56.50
2017-06-21T08:24:47.315Z,57.10
2017-06-21T08:27:16.240Z,57.40
2017-06-21T08:29:44.371Z,57.30
2017-06-21T08:32:14.168Z,56.80
2017-06-21T08:34:42.349Z,56.80
2017-06-21T08:37:10.682Z,58.20
2017-06-21T08:39:38.834Z,60.90
2017-06-21T08:42:08.115Z,57.70
2017-06-21T08:44:36.257Z,57.70
2017-06-21T08:47:04.399Z,57.30
2017-06-21T08:49:32.575Z,55.60
2017-06-21T08:52:00.797Z,55.10
2017-06-21T08:54:28.949Z,55.50
2017-06-21T08:56:57.191Z,54.80
2017-06-21T08:59:26.491Z,55.00
2017-06-21T09:01:54.650Z,56.20
2017-06-21T09:04:22.772Z,58.00
2017-06-21T09:06:50.997Z,58.70
2017-06-21T09:09:19.185Z,59.20
2017-06-21T09:11:48.212Z,57.30
2017-06-21T09:14:16.359Z,57.70
2017-06-21T09:16:44.519Z,57.90
2017-06-21T09:19:12.708Z,58.60
2017-06-21T09:21:42.267Z,59.70
2017-06-21T09:24:12.976Z,59.80
2017-06-21T09:26:41.743Z,59.60
2017-06-21T09:29:10.316Z,60.20
2017-06-21T09:31:38.460Z,60.10
2017-06-21T09:34:06.592Z,59.20
2017-06-21T09:36:35.209Z,63.20
2017-06-21T09:39:03.354Z,57.10
2017-06-21T09:41:32.346Z,55.60
2017-06-21T09:44:01.118Z,55.60
2017-06-21T09:46:29.676Z,55.90
2017-06-21T09:48:57.949Z,55.90
2017-06-21T09:51:26.373Z,56.10
2017-06-21T09:53:54.574Z,56.20
2017-06-21T09:56:22.775Z,56.30
2017-06-21T09:58:51.623Z,57.20
2017-06-21T10:01:19.892Z,58.10
2017-06-21T10:03:48.354Z,58.70
2017-06-21T10:06:16.497Z,58.50
2017-06-21T10:08:44.653Z,58.20
2017-06-21T10:11:13.009Z,57.20
2017-06-21T10:13:41.191Z,57.10
2017-06-21T10:16:09.455Z,57.00
2017-06-21T10:18:37.597Z,57.40
2017-06-21T10:21:06.119Z,56.70
2017-06-21T10:23:34.254Z,56.90
2017-06-21T10:26:02.397Z,55.40
2017-06-21T10:28:30.591Z,55.10
2017-06-21T10:30:59.510Z,58.90
2017-06-21T10:33:27.774Z,58.90
2017-06-21T10:35:55.923Z,55.10
2017-06-21T10:38:24.536Z,55.40
2017-06-21T10:40:52.719Z,56.70
2017-06-21T10:43:20.886Z,56.50
2017-06-21T10:45:49.059Z,56.60
2017-06-21T10:48:17.214Z,56.30
2017-06-21T10:50:46.132Z,56.40
2017-06-21T10:53:15.029Z,56.30
2017-06-21T10:55:43.541Z,56.60
2017-06-21T10:58:11.739Z,56.40
2017-06-21T11:00:39.930Z,57.10
2017-06-21T11:03:08.112Z,57.70
2017-06-21T11:05:36.293Z,57.00
2017-06-21T11:08:04.540Z,56.10
2017-06-21T11:10:32.711Z,55.90
2017-06-21T11:13:01.263Z,56.10
2017-06-21T11:15:29.419Z,56.60
2017-06-21T11:17:57.550Z,56.90
2017-06-21T11:20:25.739Z,55.90
2017-06-21T11:22:54.239Z,54.70
2017-06-21T11:25:22.430Z,53.90
2017-06-21T11:27:50.766Z,53.60
2017-06-21T11:30:19.272Z,53.80
2017-06-21T11:32:47.396Z,53.40
2017-06-21T11:35:15.578Z,53.40
2017-06-21T11:37:43.738Z,52.70
2017-06-21T11:40:12.115Z,52.40
2017-06-21T11:42:40.300Z,51.80
2017-06-21T11:45:08.423Z,51.80
2017-06-21T11:47:36.876Z,51.80
2017-06-21T11:50:05.039Z,51.10
2017-06-21T11:52:33.194Z,51.20
2017-06-21T11:55:01.337Z,51.90
2017-06-21T11:57:29.478Z,52.80
2017-06-21T11:59:57.815Z,52.80
2017-06-21T12:02:25.966Z,53.20
2017-06-21T12:04:54.423Z,54.50
2017-06-21T12:07:22.580Z,54.30
2017-06-21T12:09:51.500Z,53.40
2017-06-21T12:12:20.662Z,53.40
2017-06-21T12:14:48.827Z,52.80
2017-06-21T12:17:17.034Z,51.60
2017-06-21T12:19:45.413Z,50.60
2017-06-21T12:22:13.565Z,49.90
2017-06-21T12:24:42.481Z,49.10
2017-06-21T12:27:11.511Z,49.10
2017-06-21T12:29:39.666Z,49.50
2017-06-21T12:32:07.793Z,49.60
2017-06-21T12:34:36.343Z,50.20
2017-06-21T12:37:05.167Z,51.00
2017-06-21T12:39:34.533Z,52.00
2017-06-21T12:42:03.445Z,51.60
2017-06-21T12:44:31.579Z,51.60
2017-06-21T12:46:59.740Z,51.60
2017-06-21T12:49:27.852Z,51.40
2017-06-21T12:51:56.361Z,52.10
2017-06-21T12:54:24.998Z,52.20
2017-06-21T12:56:53.971Z,51.70
2017-06-21T12:59:22.191Z,51.60
2017-06-21T13:01:50.918Z,50.90
2017-06-21T13:04:19.617Z,50.80
2017-06-21T13:06:47.743Z,51.40
2017-06-21T13:09:16.294Z,52.30
2017-06-21T13:11:44.428Z,52.60
2017-06-21T13:14:13.310Z,52.90
2017-06-21T13:16:41.615Z,53.70
2017-06-21T13:19:09.747Z,53.90
2017-06-21T13:21:37.888Z,54.70
2017-06-21T13:24:06.053Z,55.30
2017-06-21T13:26:34.550Z,55.80
2017-06-21T13:29:02.928Z,56.20
2017-06-21T13:31:31.053Z,56.50
2017-06-21T13:33:59.304Z,55.70
2017-06-21T13:36:27.436Z,55.50
2017-06-21T13:38:55.629Z,54.80
2017-06-21T13:41:23.782Z,53.60
2017-06-21T13:43:52.242Z,54.00
2017-06-21T13:46:20.414Z,54.20
2017-06-21T13:48:49.458Z,53.90
2017-06-21T13:51:18.197Z,53.80
2017-06-21T13:53:46.322Z,53.70
2017-06-21T13:56:14.572Z,53.80
2017-06-21T13:58:42.694Z,53.40
2017-06-21T14:01:11.217Z,53.20
2017-06-21T14:03:39.349Z,54.00
2017-06-21T14:06:07.505Z,54.20
2017-06-21T14:08:36.634Z,52.30
2017-06-21T14:11:04.851Z,52.80
2017-06-21T14:13:33.519Z,52.60
2017-06-21T14:16:01.676Z,52.60
2017-06-21T14:18:30.089Z,53.40
2017-06-21T14:20:58.700Z,54.00
2017-06-21T14:23:28.599Z,54.60
2017-06-21T14:25:56.836Z,54.60
2017-06-21T14:28:25.011Z,55.20
2017-06-21T14:30:53.160Z,55.30
2017-06-21T14:33:21.306Z,55.70
2017-06-21T14:35:50.093Z,55.70
2017-06-21T14:38:18.243Z,55.40
2017-06-21T14:40:46.387Z,55.80
2017-06-21T14:43:14.621Z,56.00
2017-06-21T14:45:43.801Z,57.50
2017-06-21T14:48:11.969Z,57.50
2017-06-21T14:50:40.094Z,57.00
2017-06-21T14:53:08.561Z,56.40
2017-06-21T14:55:36.697Z,55.70
2017-06-21T14:58:04.838Z,56.20
2017-06-21T15:00:32.981Z,55.90
2017-06-21T15:03:01.128Z,56.00
2017-06-21T15:05:29.284Z,56.00
2017-06-21T15:07:57.433Z,55.60
2017-06-21T15:10:25.903Z,55.80
2017-06-21T15:12:54.821Z,56.50
2017-06-21T15:15:22.973Z,56.50
2017-06-21T15:17:51.150Z,56.60
2017-06-21T15:20:19.275Z,56.10
2017-06-21T15:22:47.443Z,56.20
2017-06-21T15:25:15.601Z,56.10
2017-06-21T15:27:44.178Z,56.20
2017-06-21T15:30:12.292Z,56.50
2017-06-21T15:32:40.450Z,56.10
2017-06-21T15:35:08.593Z,56.20
2017-06-21T15:37:36.721Z,56.50
2017-06-21T15:40:04.895Z,56.70
2017-06-21T15:42:33.038Z,56.70
2017-06-21T15:45:01.567Z,56.50
2017-06-21T15:47:29.784Z,56.80
2017-06-21T15:49:59.040Z,57.20
2017-06-21T15:52:27.242Z,57.10
2017-06-21T15:54:55.391Z,56.80
2017-06-21T15:57:23.825Z,57.70
2017-06-21T15:59:51.963Z,57.50
2017-06-21T16:02:20.400Z,57.10
2017-06-21T16:04:48.541Z,57.00
2017-06-21T16:07:16.693Z,57.20
2017-06-21T16:09:44.912Z,57.30
2017-06-21T16:12:13.171Z,57.20
2017-06-21T16:14:41.358Z,57.40
2017-06-21T16:17:09.490Z,57.50
2017-06-21T16:19:38.162Z,57.50
2017-06-21T16:22:06.314Z,57.20
2017-06-21T16:24:34.440Z,57.10
2017-06-21T16:27:02.607Z,57.40
2017-06-21T16:29:30.739Z,57.40
2017-06-21T16:31:58.915Z,57.70
2017-06-21T16:34:27.063Z,58.30
2017-06-21T16:36:56.247Z,57.90
2017-06-21T16:39:24.394Z,57.40
2017-06-21T16:41:53.385Z,57.50
2017-06-21T16:44:21.640Z,58.00
2017-06-21T16:46:49.925Z,58.50
2017-06-21T16:49:18.851Z,58.10
2017-06-21T16:51:47.762Z,58.10
2017-06-21T16:54:16.278Z,58.10
2017-06-21T16:56:44.424Z,58.60
2017-06-21T16:59:12.575Z,58.10
2017-06-21T17:01:41.490Z,58.60
2017-06-21T17:04:09.615Z,58.60
2017-06-21T17:06:37.778Z,58.70
2017-06-21T17:09:05.892Z,59.20
2017-06-21T17:11:34.316Z,59.30
2017-06-21T17:14:03.001Z,58.60
2017-06-21T17:16:31.243Z,58.40
2017-06-21T17:18:59.460Z,58.50
2017-06-21T17:21:27.591Z,59.20
2017-06-21T17:23:55.766Z,59.40
2017-06-21T17:26:23.919Z,60.40
2017-06-21T17:28:52.341Z,60.40
2017-06-21T17:31:20.479Z,59.80
2017-06-21T17:33:48.634Z,60.10
2017-06-21T17:36:16.821Z,59.90
2017-06-21T17:38:45.086Z,60.20
2017-06-21T17:41:13.350Z,60.60
2017-06-21T17:43:41.498Z,61.40
2017-06-21T17:46:10.567Z,62.60
2017-06-21T17:48:39.850Z,62.70
2017-06-21T17:51:08.001Z,62.50
2017-06-21T17:53:37.023Z,61.20
2017-06-21T17:56:05.163Z,61.30
2017-06-21T17:58:33.329Z,62.10
2017-06-21T18:01:01.841Z,61.70
2017-06-21T18:03:30.357Z,62.10
2017-06-21T18:05:58.592Z,61.30
2017-06-21T18:08:26.860Z,61.10
2017-06-21T18:10:55.148Z,61.30
2017-06-21T18:13:23.313Z,61.30
2017-06-21T18:15:52.121Z,61.60
2017-06-21T18:18:20.258Z,61.60
2017-06-21T18:20:48.734Z,61.90
2017-06-21T18:23:16.931Z,62.40
2017-06-21T18:25:46.321Z,61.70
2017-06-21T18:28:14.681Z,62.20
2017-06-21T18:30:42.837Z,63.80
2017-06-21T18:33:11.005Z,63.80
2017-06-21T18:35:39.198Z,63.00
2017-06-21T18:38:07.771Z,62.40
2017-06-21T18:40:36.005Z,62.30
2017-06-21T18:43:04.899Z,63.30
2017-06-21T18:45:33.650Z,63.20
2017-06-21T18:48:01.813Z,62.60
2017-06-21T18:50:30.544Z,64.20
2017-06-21T18:52:58.690Z,63.80
2017-06-21T18:55:26.865Z,63.80
2017-06-21T18:57:55.021Z,64.50
2017-06-21T19:00:23.160Z,65.50
2017-06-21T19:02:51.343Z,65.80
2017-06-21T19:05:19.507Z,65.80
2017-06-21T19:07:47.700Z,65.50
2017-06-21T19:10:15.879Z,64.90
2017-06-21T19:12:44.803Z,66.50
2017-06-21T19:15:12.999Z,65.40
2017-06-21T19:17:41.239Z,65.90
2017-06-21T19:20:09.457Z,66.40
2017-06-21T19:22:37.661Z,66.10
2017-06-21T19:25:06.104Z,66.20
2017-06-21T19:27:35.152Z,66.10
2017-06-21T19:30:03.295Z,65.90
2017-06-21T19:32:31.513Z,65.80
2017-06-21T19:35:00.630Z,65.80
2017-06-21T19:37:28.850Z,65.90
2017-06-21T19:39:57.685Z,66.00
2017-06-21T19:42:26.205Z,66.10
2017-06-21T19:44:54.388Z,66.10
2017-06-21T19:47:22.845Z,65.80
2017-06-21T19:49:52.093Z,66.00
2017-06-21T19:52:20.858Z,65.80
2017-06-21T19:54:49.265Z,65.80
2017-06-21T19:57:17.491Z,65.90
2017-06-21T19:59:46.045Z,66.00
2017-06-21T20:02:14.273Z,66.10
2017-06-21T20:04:42.402Z,65.10
2017-06-21T20:07:12.084Z,66.80
2017-06-21T20:09:40.226Z,66.40
2017-06-21T20:12:08.493Z,66.80
2017-06-21T20:14:36.628Z,66.10
2017-06-21T20:17:05.907Z,67.50
2017-06-21T20:19:34.046Z,67.50
2017-06-21T20:22:02.181Z,68.00
2017-06-21T20:24:30.705Z,68.20
2017-06-21T20:26:58.851Z,68.80
2017-06-21T20:29:27.764Z,68.70
2017-06-21T20:31:56.375Z,68.70
2017-06-21T20:34:25.432Z,68.60
2017-06-21T20:36:53.617Z,68.40
2017-06-21T20:39:23.992Z,68.60
2017-06-21T20:41:52.399Z,68.50
2017-06-21T20:44:20.600Z,68.30
2017-06-21T20:46:49.606Z,68.20
2017-06-21T20:49:17.788Z,68.10
2017-06-21T20:51:46.265Z,68.10
2017-06-21T20:54:14.501Z,68.30
2017-06-21T20:56:42.642Z,67.70
2017-06-21T20:59:10.814Z,67.70
2017-06-21T21:01:38.960Z,68.50
2017-06-21T21:04:07.466Z,68.90
2017-06-21T21:06:35.641Z,68.80
2017-06-21T21:09:04.472Z,69.40
2017-06-21T21:11:32.896Z,69.70
2017-06-21T21:14:01.066Z,70.10
2017-06-21T21:16:29.630Z,70.30
2017-06-21T21:18:57.842Z,70.10
2017-06-21T21:21:26.025Z,70.20
2017-06-21T21:23:54.209Z,70.00
2017-06-21T21:26:22.822Z,70.10
2017-06-21T21:28:50.988Z,70.80
2017-06-21T21:31:19.174Z,70.90
2017-06-21T21:33:47.377Z,71.30
2017-06-21T21:36:15.543Z,71.90
2017-06-21T21:38:44.007Z,72.40
2017-06-21T21:41:12.245Z,72.50
2017-06-21T21:43:41.710Z,72.70
2017-06-21T21:46:10.759Z,73.00
2017-06-21T21:48:39.718Z,73.20
2017-06-21T21:51:07.979Z,73.10
2017-06-21T21:53:36.212Z,73.30
2017-06-21T21:56:05.182Z,73.40
2017-06-21T21:58:33.317Z,73.60
2017-06-21T22:01:01.837Z,73.30
2017-06-21T22:03:29.978Z,73.20
2017-06-21T22:05:59.059Z,73.40
2017-06-21T22:08:27.224Z,73.90
2017-06-21T22:10:56.110Z,73.50
2017-06-21T22:13:24.737Z,73.50
2017-06-21T22:15:53.397Z,72.50
2017-06-21T22:18:21.857Z,73.30
2017-06-21T22:20:50.829Z,73.10
2017-06-21T22:23:19.002Z,72.80
2017-06-21T22:25:47.196Z,72.50
2017-06-21T22:28:15.527Z,72.20
2017-06-21T22:30:43.705Z,72.20
2017-06-21T22:33:11.885Z,72.10
2017-06-21T22:35:40.390Z,72.40
2017-06-21T22:38:08.556Z,72.30
2017-06-21T22:40:36.770Z,71.70
2017-06-21T22:43:04.908Z,71.60
2017-06-21T22:45:33.136Z,71.50
2017-06-21T22:48:01.919Z,72.30
2017-06-21T22:50:30.852Z,72.20
2017-06-21T22:53:00.173Z,72.00
2017-06-21T22:55:28.347Z,71.50
2017-06-21T22:57:56.506Z,70.90
2017-06-21T23:00:24.734Z,71.20
2017-06-21T23:02:53.736Z,72.30
2017-06-21T23:05:21.922Z,72.10
2017-06-21T23:07:50.976Z,72.00
2017-06-21T23:10:19.485Z,72.80
2017-06-21T23:12:47.689Z,72.60
2017-06-21T23:15:15.856Z,73.00
2017-06-21T23:17:44.441Z,73.20
2017-06-21T23:20:12.584Z,73.80
2017-06-21T23:22:40.715Z,75.00
2017-06-21T23:25:08.888Z,75.40
2017-06-21T23:27:37.521Z,76.50
2017-06-21T23:30:06.559Z,77.10
2017-06-21T23:32:34.697Z,77.70
2017-06-21T23:35:02.997Z,77.80
2017-06-21T23:37:31.175Z,77.90
2017-06-21T23:40:00.239Z,77.80
2017-06-21T23:42:28.393Z,77.80
2017-06-21T23:44:56.806Z,78.10
2017-06-21T23:47:24.961Z,77.80
2017-06-21T23:49:53.113Z,78.00
2017-06-21T23:52:21.484Z,78.50
2017-06-21T23:54:49.633Z,78.20
2017-06-21T23:57:17.814Z,78.40
2017-06-21T23:59:46.776Z,78.90
